Time;durP1;ratioP1;P1;durP2;ratioP2;P2;SDS_P1;SDS_P2;PMS_P1;PMS_P2;Temp;Humidity;BMP_temperature;BMP_pressure;BME280_temperature;BME280_humidity;BME280_pressure;Samples;Min_cycle;Max_cycle;Signal;HPM_P1;HPM_P2
2023/07/20 00:02:08;;;;;;;2.90;1.98;;;20.20;97.70;;;;;;5026812;28;20205;-33
2023/07/20 00:04:36;;;;;;;3.50;2.05;;;20.10;97.70;;;;;;5028551;28;20708;-33
2023/07/20 00:07:04;;;;;;;3.72;2.08;;;20.10;97.60;;;;;;5026178;28;20221;-32
2023/07/20 00:09:31;;;;;;;3.35;2.15;;;20.10;97.60;;;;;;5028573;28;20201;-32
2023/07/20 00:12:01;;;;;;;4.05;2.20;;;20.10;97.70;;;;;;5026603;28;20193;-33
2023/07/20 00:14:32;;;;;;;2.45;1.73;;;20.10;97.80;;;;;;5028118;28;20675;-32
2023/07/20 00:17:04;;;;;;;3.90;2.60;;;20.10;97.80;;;;;;5032236;28;20689;-32
2023/07/20 00:19:32;;;;;;;3.95;2.35;;;20.10;97.80;;;;;;5046775;28;20212;-32
2023/07/20 00:21:59;;;;;;;5.25;2.03;;;20.10;97.80;;;;;;5045719;28;20287;-33
2023/07/20 00:24:29;;;;;;;3.28;2.25;;;20.00;97.80;;;;;;5048498;28;20220;-32
2023/07/20 00:26:58;;;;;;;5.00;2.00;;;20.00;97.80;;;;;;5045460;28;20718;-32
2023/07/20 00:29:26;;;;;;;3.90;2.38;;;20.00;97.80;;;;;;5026454;28;20236;-32
2023/07/20 00:31:56;;;;;;;3.05;1.95;;;20.00;97.80;;;;;;5027813;28;20201;-32
2023/07/20 00:34:23;;;;;;;5.20;2.08;;;20.00;97.80;;;;;;5026756;28;20594;-32
2023/07/20 00:36:52;;;;;;;5.55;2.20;;;20.00;97.90;;;;;;5027832;28;20247;-32
2023/07/20 00:39:22;;;;;;;4.57;1.90;;;20.00;97.80;;;;;;5047471;28;20243;-33
2023/07/20 00:41:49;;;;;;;4.43;2.40;;;20.00;97.80;;;;;;5047615;28;20204;-32
2023/07/20 00:44:19;;;;;;;4.95;2.30;;;20.00;97.90;;;;;;5046219;28;20741;-32
2023/07/20 00:46:49;;;;;;;4.53;2.50;;;20.00;97.90;;;;;;5046164;28;20188;-32
2023/07/20 00:49:21;;;;;;;3.80;2.30;;;20.00;97.90;;;;;;5026253;28;20205;-33
2023/07/20 00:51:49;;;;;;;4.13;2.13;;;19.90;97.90;;;;;;5027896;28;20220;-33
2023/07/20 00:54:23;;;;;;;7.50;2.10;;;19.90;97.90;;;;;;5046444;28;20220;-32
2023/07/20 00:56:54;;;;;;;5.10;2.15;;;19.90;97.90;;;;;;5046177;28;20189;-33
2023/07/20 00:59:24;;;;;;;4.30;2.10;;;19.90;98.00;;;;;;5029359;28;20538;-33
2023/07/20 01:01:53;;;;;;;4.85;2.50;;;19.90;98.10;;;;;;5030515;28;20254;-32
2023/07/20 01:04:26;;;;;;;3.92;2.45;;;19.90;98.00;;;;;;5028867;28;20327;-33
2023/07/20 01:07:03;;;;;;;4.68;2.20;;;19.90;98.10;;;;;;5033114;28;20201;-32
2023/07/20 01:09:59;;;;;;;3.85;1.92;;;19.90;98.10;;;;;;5040519;28;20206;-33
2023/07/20 01:12:42;;;;;;;4.47;2.72;;;19.90;98.20;;;;;;5045648;28;20636;-32
2023/07/20 01:15:12;;;;;;;4.68;2.60;;;19.90;98.20;;;;;;5040300;28;20841;-33
2023/07/20 01:17:45;;;;;;;4.90;2.45;;;19.80;98.10;;;;;;5034373;28;20216;-33
2023/07/20 01:20:20;;;;;;;6.38;2.60;;;19.80;98.10;;;;;;5045846;28;20737;-33
2023/07/20 01:23:09;;;;;;;4.45;2.20;;;19.90;98.30;;;;;;5045547;28;20211;-32
2023/07/20 01:25:45;;;;;;;5.55;2.55;;;19.80;98.40;;;;;;5033415;28;20295;-32
2023/07/20 01:28:47;;;;;;;6.63;2.40;;;19.80;98.30;;;;;;5042488;28;20603;-32
2023/07/20 01:31:36;;;;;;;4.13;2.35;;;19.80;98.40;;;;;;5025101;28;20201;-32
2023/07/20 01:34:06;;;;;;;6.78;2.78;;;19.80;98.50;;;;;;5026111;28;20566;-32
2023/07/20 01:36:42;;;;;;;3.58;2.28;;;19.80;98.30;;;;;;5024715;28;20217;-33
2023/07/20 01:39:14;;;;;;;6.15;2.85;;;19.80;98.40;;;;;;5038651;28;20232;-32
2023/07/20 01:41:44;;;;;;;5.30;2.55;;;19.80;98.30;;;;;;5044322;28;20741;-32
2023/07/20 01:44:15;;;;;;;4.18;2.10;;;19.90;98.40;;;;;;5046941;28;20314;-33
2023/07/20 01:46:47;;;;;;;10.73;3.00;;;19.80;98.40;;;;;;5030933;28;20647;-33
2023/07/20 01:49:15;;;;;;;5.35;3.13;;;19.90;98.50;;;;;;5037412;28;20761;-33
2023/07/20 01:51:44;;;;;;;6.30;2.83;;;19.90;98.40;;;;;;5044362;28;20694;-25
2023/07/20 01:54:14;;;;;;;7.57;2.92;;;19.90;98.50;;;;;;5045169;28;20210;-24
2023/07/20 01:56:41;;;;;;;7.93;2.58;;;19.90;98.50;;;;;;5044840;28;20215;-24
2023/07/20 01:59:08;;;;;;;6.30;3.00;;;19.90;98.60;;;;;;5043416;28;20222;-24
2023/07/20 02:01:37;;;;;;;4.72;2.80;;;19.90;98.60;;;;;;5045083;28;20912;-24
2023/07/20 02:04:09;;;;;;;6.53;2.97;;;19.90;98.60;;;;;;5046881;28;20598;-24
2023/07/20 02:06:39;;;;;;;6.18;3.20;;;19.90;98.70;;;;;;5045925;28;20211;-24
2023/07/20 02:09:06;;;;;;;6.97;3.38;;;19.90;98.70;;;;;;5044403;28;20258;-24
2023/07/20 02:11:33;;;;;;;6.85;3.42;;;19.90;98.70;;;;;;5046291;28;20746;-25
2023/07/20 02:14:00;;;;;;;9.23;3.70;;;19.80;98.70;;;;;;5044709;28;20201;-25
2023/07/20 02:16:28;;;;;;;5.47;3.63;;;19.80;98.60;;;;;;5044952;28;20204;-24
2023/07/20 02:18:56;;;;;;;7.40;3.67;;;19.80;98.70;;;;;;5043320;28;20659;-24
2023/07/20 02:21:24;;;;;;;6.97;3.53;;;19.80;98.70;;;;;;5045110;28;20207;-24
2023/07/20 02:23:51;;;;;;;8.10;3.55;;;19.80;98.70;;;;;;5043219;28;20232;-25
2023/07/20 02:26:21;;;;;;;7.05;3.97;;;19.80;98.70;;;;;;5044861;28;20273;-25
2023/07/20 02:28:49;;;;;;;7.97;3.63;;;19.80;98.70;;;;;;5044435;28;20227;-24
2023/07/20 02:31:16;;;;;;;5.80;3.65;;;19.80;98.80;;;;;;5025127;28;20233;-24
2023/07/20 02:33:45;;;;;;;5.88;3.20;;;19.80;99.10;;;;;;5024998;28;20219;-24
2023/07/20 02:36:13;;;;;;;7.35;3.22;;;19.80;98.90;;;;;;5025110;28;20225;-25
2023/07/20 02:38:40;;;;;;;7.03;3.55;;;19.80;98.90;;;;;;5026099;28;20236;-25
2023/07/20 02:41:07;;;;;;;4.07;3.22;;;19.80;98.90;;;;;;5024843;28;20205;-24
2023/07/20 02:43:34;;;;;;;7.55;3.95;;;19.80;98.90;;;;;;5026158;28;20251;-24
2023/07/20 02:46:06;;;;;;;6.97;3.42;;;19.70;98.90;;;;;;5024747;28;20215;-25
2023/07/20 02:48:33;;;;;;;6.88;3.65;;;19.70;98.90;;;;;;5024168;28;20197;-24
2023/07/20 02:51:03;;;;;;;7.57;3.83;;;19.70;99.00;;;;;;5041033;28;20745;-24
2023/07/20 02:53:34;;;;;;;6.50;3.42;;;19.70;99.00;;;;;;5046438;28;20300;-24
2023/07/20 02:56:03;;;;;;;8.27;3.92;;;19.60;99.00;;;;;;5028141;28;20726;-25
2023/07/20 02:58:36;;;;;;;10.10;4.28;;;19.60;99.00;;;;;;5030117;28;20231;-25
2023/07/20 03:01:04;;;;;;;7.55;4.03;;;19.60;99.00;;;;;;5042973;28;20288;-25
2023/07/20 03:03:31;;;;;;;8.45;3.92;;;19.60;99.10;;;;;;5048619;28;20299;-25
2023/07/20 03:06:02;;;;;;;7.28;3.72;;;19.50;99.00;;;;;;5049045;28;20235;-24
2023/07/20 03:08:31;;;;;;;8.80;4.05;;;19.50;99.10;;;;;;5049635;28;20204;-24
2023/07/20 03:11:04;;;;;;;6.82;4.22;;;19.50;99.10;;;;;;5029084;28;20208;-24
2023/07/20 03:13:31;;;;;;;8.02;4.18;;;19.50;99.20;;;;;;5030096;28;20270;-24
2023/07/20 03:16:01;;;;;;;8.65;4.68;;;19.40;99.20;;;;;;5028295;28;20697;-24
2023/07/20 03:18:32;;;;;;;8.20;4.57;;;19.40;99.20;;;;;;5029696;28;20575;-24
2023/07/20 03:21:02;;;;;;;11.18;4.43;;;19.40;99.20;;;;;;5041575;28;20212;-24
2023/07/20 03:23:32;;;;;;;7.30;4.40;;;19.40;99.40;;;;;;5047993;28;20286;-24
2023/07/20 03:26:00;;;;;;;6.18;4.70;;;19.30;99.30;;;;;;5045945;28;20200;-24
2023/07/20 03:28:29;;;;;;;7.00;4.47;;;19.30;99.30;;;;;;5047864;28;20196;-24
2023/07/20 03:30:57;;;;;;;9.68;4.85;;;19.30;99.30;;;;;;5046101;28;20223;-24
2023/07/20 03:33:31;;;;;;;8.25;4.70;;;19.30;99.40;;;;;;5049487;28;20600;-24
2023/07/20 03:35:58;;;;;;;10.13;5.18;;;19.20;99.40;;;;;;5046776;28;20701;-24
2023/07/20 03:38:27;;;;;;;8.93;4.97;;;19.20;99.40;;;;;;5049127;28;20240;-25
2023/07/20 03:40:57;;;;;;;8.85;5.15;;;19.20;99.40;;;;;;5037675;28;20200;-24
2023/07/20 03:43:26;;;;;;;9.00;4.95;;;19.20;99.50;;;;;;5047805;28;20193;-24
2023/07/20 03:45:56;;;;;;;8.20;5.10;;;19.20;99.50;;;;;;5049193;28;20247;-25
2023/07/20 03:48:29;;;;;;;7.53;5.00;;;19.20;99.50;;;;;;5048197;28;20204;-24
2023/07/20 03:50:56;;;;;;;7.65;4.93;;;19.20;99.60;;;;;;5044731;28;20213;-24
2023/07/20 03:53:28;;;;;;;7.97;4.90;;;19.20;99.60;;;;;;5047484;28;20606;-24
2023/07/20 03:55:57;;;;;;;11.35;5.07;;;19.20;99.60;;;;;;5046760;28;20212;-25
2023/07/20 03:58:25;;;;;;;7.55;4.50;;;19.20;99.70;;;;;;5047750;28;20200;-24
2023/07/20 04:00:54;;;;;;;8.85;5.28;;;19.20;99.60;;;;;;5045644;28;20258;-24
2023/07/20 04:03:24;;;;;;;11.68;5.63;;;19.20;99.70;;;;;;5046795;28;20200;-24
2023/07/20 04:05:56;;;;;;;10.00;5.05;;;19.20;99.60;;;;;;5047265;28;20771;-24
2023/07/20 04:08:26;;;;;;;8.63;5.30;;;19.20;99.60;;;;;;5047273;28;20207;-24
2023/07/20 04:10:53;;;;;;;7.95;5.40;;;19.20;99.70;;;;;;5045371;28;20204;-25
2023/07/20 04:13:25;;;;;;;10.15;5.90;;;19.20;99.70;;;;;;5048652;28;20304;-25
2023/07/20 04:15:55;;;;;;;10.55;5.35;;;19.20;99.80;;;;;;5047023;28;20199;-24
2023/07/20 04:18:24;;;;;;;10.32;5.70;;;19.20;99.80;;;;;;5048510;28;20203;-24
2023/07/20 04:20:52;;;;;;;10.43;6.32;;;19.20;99.80;;;;;;5044202;28;20208;-24
2023/07/20 04:23:19;;;;;;;8.77;6.90;;;19.30;99.90;;;;;;5048902;28;20578;-24
2023/07/20 04:25:51;;;;;;;9.52;6.65;;;19.30;99.90;;;;;;5045623;28;20220;-25
2023/07/20 04:28:21;;;;;;;12.10;7.05;;;19.30;99.90;;;;;;5048486;28;20196;-24
2023/07/20 04:30:53;;;;;;;10.98;6.72;;;19.30;99.90;;;;;;5043453;28;20211;-24
2023/07/20 04:33:23;;;;;;;9.25;6.40;;;19.30;99.90;;;;;;5024270;28;20295;-24
2023/07/20 04:35:53;;;;;;;10.68;7.35;;;19.30;99.90;;;;;;5027247;28;20251;-26
2023/07/20 04:38:27;;;;;;;10.75;7.05;;;19.30;99.90;;;;;;5026914;28;20343;-24
2023/07/20 04:40:57;;;;;;;11.82;6.82;;;19.40;99.90;;;;;;5028740;28;20602;-24
2023/07/20 04:43:31;;;;;;;9.00;6.95;;;19.40;99.90;;;;;;5026825;28;20254;-24
2023/07/20 04:46:03;;;;;;;8.88;6.90;;;19.40;99.90;;;;;;5028109;28;20298;-24
2023/07/20 04:48:35;;;;;;;12.98;7.03;;;19.40;99.90;;;;;;5028325;28;20197;-24
2023/07/20 04:51:05;;;;;;;9.07;6.90;;;19.40;99.90;;;;;;5027591;28;20208;-25
2023/07/20 04:53:37;;;;;;;11.05;6.93;;;19.50;99.90;;;;;;5046502;28;20196;-24
2023/07/20 04:56:06;;;;;;;11.10;7.18;;;19.50;99.90;;;;;;5041803;28;20219;-24
2023/07/20 04:58:38;;;;;;;16.38;7.38;;;19.50;99.90;;;;;;5046358;28;20736;-24
2023/07/20 05:01:08;;;;;;;8.77;7.28;;;19.50;99.90;;;;;;5038671;28;20678;-24
2023/07/20 05:03:38;;;;;;;10.65;6.97;;;19.50;99.90;;;;;;5026932;28;20695;-24
2023/07/20 05:06:08;;;;;;;11.85;6.75;;;19.60;99.90;;;;;;5030973;28;20624;-24
2023/07/20 05:08:38;;;;;;;11.10;7.00;;;19.60;99.90;;;;;;5028420;28;20205;-25
2023/07/20 05:11:07;;;;;;;12.23;7.43;;;19.60;99.90;;;;;;5031936;28;20200;-25
2023/07/20 05:13:34;;;;;;;12.52;7.35;;;19.70;99.90;;;;;;5033795;28;20679;-24
2023/07/20 05:16:04;;;;;;;9.65;6.93;;;19.70;99.90;;;;;;5032543;28;20590;-25
2023/07/20 05:18:36;;;;;;;11.77;7.20;;;19.70;99.90;;;;;;5045471;28;20294;-26
2023/07/20 05:21:06;;;;;;;9.55;7.53;;;19.80;99.90;;;;;;5031855;28;20590;-24
2023/07/20 05:23:35;;;;;;;11.85;7.38;;;19.80;99.90;;;;;;5027151;28;20558;-25
2023/07/20 05:26:05;;;;;;;11.27;7.65;;;19.90;99.90;;;;;;5036827;28;20231;-25
2023/07/20 05:28:33;;;;;;;10.07;6.93;;;19.90;99.90;;;;;;5027862;28;20664;-24
2023/07/20 05:31:05;;;;;;;8.65;7.20;;;19.90;99.90;;;;;;5033085;28;20919;-24
2023/07/20 05:33:34;;;;;;;9.50;7.45;;;20.00;99.90;;;;;;5048731;28;20297;-24
2023/07/20 05:36:04;;;;;;;8.43;7.47;;;20.00;99.90;;;;;;5039076;28;20232;-24
2023/07/20 05:38:34;;;;;;;11.93;7.82;;;20.10;99.90;;;;;;5039138;28;20890;-32
2023/07/20 05:41:10;;;;;;;8.30;7.50;;;20.10;99.90;;;;;;5043504;28;20216;-32
2023/07/20 05:43:37;;;;;;;10.38;7.32;;;20.10;99.90;;;;;;5046554;28;20741;-33
2023/07/20 05:46:05;;;;;;;13.93;7.15;;;20.10;99.90;;;;;;5044909;28;20248;-33
2023/07/20 05:48:32;;;;;;;10.18;7.47;;;20.20;99.90;;;;;;5043432;28;20717;-33
2023/07/20 05:50:59;;;;;;;9.32;7.43;;;20.20;99.90;;;;;;5033278;28;20225;-33
2023/07/20 05:53:27;;;;;;;12.57;7.38;;;20.20;99.90;;;;;;5026791;28;20595;-33
2023/07/20 05:55:54;;;;;;;12.18;8.05;;;20.20;99.90;;;;;;5026040;28;21003;-33
2023/07/20 05:58:22;;;;;;;8.40;6.78;;;20.20;99.90;;;;;;5032626;28;20648;-33
2023/07/20 06:00:53;;;;;;;9.52;7.40;;;20.30;99.90;;;;;;5045837;28;20363;-33
2023/07/20 06:03:23;;;;;;;9.73;6.55;;;20.30;99.90;;;;;;5045576;28;20223;-33
2023/07/20 06:05:51;;;;;;;13.00;7.50;;;20.30;99.90;;;;;;5044121;28;20243;-33
2023/07/20 06:08:22;;;;;;;9.20;7.25;;;20.30;99.90;;;;;;5034719;28;20204;-33
2023/07/20 06:10:52;;;;;;;8.93;7.75;;;20.30;99.90;;;;;;5041624;28;20215;-33
2023/07/20 06:13:19;;;;;;;8.77;7.38;;;20.40;99.90;;;;;;5038535;28;20235;-33
2023/07/20 06:15:51;;;;;;;11.32;7.47;;;20.40;99.90;;;;;;5042750;28;20223;-33
2023/07/20 06:18:18;;;;;;;8.18;6.35;;;20.40;99.90;;;;;;5041576;28;20200;-25
2023/07/20 06:20:52;;;;;;;8.73;7.00;;;20.40;99.90;;;;;;5032386;28;20196;-25
2023/07/20 06:23:19;;;;;;;10.13;6.53;;;20.50;99.90;;;;;;5035806;28;20208;-25
2023/07/20 06:25:47;;;;;;;8.05;6.25;;;20.50;99.90;;;;;;5038403;28;20228;-25
2023/07/20 06:28:19;;;;;;;8.75;6.85;;;20.50;99.90;;;;;;5038800;28;20236;-25
2023/07/20 06:30:50;;;;;;;9.93;7.25;;;20.60;99.90;;;;;;5042738;28;20215;-25
2023/07/20 06:33:20;;;;;;;8.63;7.10;;;20.60;99.90;;;;;;5056625;28;20440;-25
2023/07/20 06:35:52;;;;;;;11.00;7.45;;;20.60;99.90;;;;;;5038061;28;20300;-25
2023/07/20 06:38:20;;;;;;;8.43;7.25;;;20.60;99.90;;;;;;5026646;28;20233;-25
2023/07/20 06:40:51;;;;;;;10.48;7.85;;;20.70;99.90;;;;;;5029508;28;20293;-25
2023/07/20 06:43:20;;;;;;;9.30;7.60;;;20.60;99.90;;;;;;5041814;28;20212;-25
2023/07/20 06:45:56;;;;;;;9.50;8.02;;;20.70;99.90;;;;;;5048371;28;20775;-24
2023/07/20 06:48:23;;;;;;;10.55;8.95;;;20.70;99.90;;;;;;5045394;28;20518;-25
2023/07/20 06:50:51;;;;;;;11.80;7.78;;;20.70;99.90;;;;;;5032229;28;20196;-25
2023/07/20 06:53:20;;;;;;;11.15;9.45;;;20.70;99.90;;;;;;5040689;28;20220;-24
2023/07/20 06:55:50;;;;;;;12.20;9.52;;;20.80;99.90;;;;;;5033062;28;20197;-25
2023/07/20 06:58:22;;;;;;;10.77;8.27;;;20.80;99.90;;;;;;5044589;28;20204;-25
2023/07/20 07:00:49;;;;;;;10.10;8.48;;;20.80;99.90;;;;;;5041616;28;20337;-25
2023/07/20 07:03:16;;;;;;;9.95;8.15;;;20.80;99.90;;;;;;5034194;28;20223;-25
2023/07/20 07:05:46;;;;;;;10.75;9.18;;;20.90;99.90;;;;;;5024831;28;20240;-25
2023/07/20 07:08:17;;;;;;;10.75;9.65;;;20.90;99.90;;;;;;5026271;28;20559;-33
2023/07/20 07:10:50;;;;;;;9.23;8.23;;;20.90;99.90;;;;;;5026734;28;20208;-33
2023/07/20 07:13:22;;;;;;;10.30;8.80;;;20.90;99.90;;;;;;5038138;28;20216;-33
2023/07/20 07:15:51;;;;;;;12.63;8.95;;;20.90;99.90;;;;;;5044958;28;20299;-33
2023/07/20 07:18:20;;;;;;;9.45;8.40;;;20.90;99.90;;;;;;5041414;28;20648;-33
2023/07/20 07:20:53;;;;;;;10.75;9.52;;;20.90;99.90;;;;;;5029579;28;20212;-33
2023/07/20 07:23:21;;;;;;;9.63;8.10;;;20.90;99.90;;;;;;5024314;28;20231;-33
2023/07/20 07:25:50;;;;;;;10.70;8.90;;;21.00;99.90;;;;;;5029086;28;20682;-33
2023/07/20 07:28:20;;;;;;;8.77;7.63;;;21.00;99.90;;;;;;5041433;28;20203;-33
2023/07/20 07:30:50;;;;;;;10.60;8.32;;;21.00;99.90;;;;;;5023391;28;20650;-33
2023/07/20 07:33:18;;;;;;;11.10;7.88;;;21.10;99.90;;;;;;5028006;28;20224;-33
2023/07/20 07:35:47;;;;;;;9.38;8.38;;;21.10;99.90;;;;;;5023089;28;20198;-25
2023/07/20 07:38:20;;;;;;;11.75;8.35;;;21.20;99.90;;;;;;5040950;28;20263;-25
2023/07/20 07:41:07;;;;;;;11.73;8.57;;;21.20;99.90;;;;;;5033590;28;20257;-25
2023/07/20 07:43:35;;;;;;;13.30;8.82;;;21.30;99.90;;;;;;5041945;28;20447;-24
2023/07/20 07:46:02;;;;;;;9.52;7.03;;;21.30;99.90;;;;;;5047110;28;20290;-24
2023/07/20 07:48:35;;;;;;;9.88;8.18;;;21.40;99.90;;;;;;5046080;28;20196;-25
2023/07/20 07:51:02;;;;;;;10.20;7.85;;;21.40;99.90;;;;;;5042550;28;20212;-25
2023/07/20 07:53:32;;;;;;;7.85;7.05;;;21.40;99.90;;;;;;5026214;28;20617;-25
2023/07/20 07:56:03;;;;;;;8.00;6.85;;;21.40;99.90;;;;;;5026973;28;20215;-25
2023/07/20 07:58:35;;;;;;;8.30;7.43;;;21.50;99.90;;;;;;5040470;28;20282;-33
2023/07/20 08:01:02;;;;;;;11.68;9.07;;;21.50;99.90;;;;;;5032082;28;20894;-33
2023/07/20 08:03:31;;;;;;;9.15;7.65;;;21.60;99.90;;;;;;5039331;28;20196;-33
2023/07/20 08:05:59;;;;;;;7.07;6.38;;;21.60;99.90;;;;;;5038998;28;20259;-33
2023/07/20 08:08:27;;;;;;;6.63;6.03;;;21.60;99.90;;;;;;5037241;28;20227;-33
2023/07/20 08:10:56;;;;;;;6.28;5.68;;;21.70;99.90;;;;;;5033248;28;20209;-33
2023/07/20 08:13:29;;;;;;;6.30;5.70;;;21.80;99.90;;;;;;5028289;28;20208;-33
2023/07/20 08:15:59;;;;;;;6.75;6.00;;;21.80;99.90;;;;;;5028267;28;20217;-33
2023/07/20 08:18:28;;;;;;;7.10;5.38;;;21.90;99.90;;;;;;5034077;28;20678;-33
2023/07/20 08:20:58;;;;;;;6.57;4.60;;;21.90;99.90;;;;;;5032257;28;20237;-34
2023/07/20 08:23:28;;;;;;;7.00;5.55;;;21.90;99.90;;;;;;5028970;28;20216;-33
2023/07/20 08:26:02;;;;;;;5.82;5.32;;;22.00;99.90;;;;;;5032812;28;20228;-33
2023/07/20 08:28:34;;;;;;;5.80;4.93;;;22.00;99.90;;;;;;5043372;28;20208;-33
2023/07/20 08:31:02;;;;;;;5.43;4.90;;;22.10;99.90;;;;;;5028594;28;20201;-33
2023/07/20 08:33:33;;;;;;;6.13;5.53;;;22.20;99.90;;;;;;5026586;28;20356;-31
2023/07/20 08:36:03;;;;;;;5.25;4.80;;;22.20;99.90;;;;;;5033158;28;20468;-31
2023/07/20 08:38:33;;;;;;;6.88;4.85;;;22.30;99.90;;;;;;5029766;28;20259;-30
2023/07/20 08:41:01;;;;;;;4.78;4.38;;;22.30;99.90;;;;;;5042891;28;20226;-31
2023/07/20 08:43:33;;;;;;;3.50;2.92;;;22.30;99.90;;;;;;5047695;28;20682;-31
2023/07/20 08:46:01;;;;;;;3.78;3.47;;;22.30;99.90;;;;;;5026586;28;20224;-31
2023/07/20 08:48:33;;;;;;;4.75;3.40;;;22.30;99.90;;;;;;5026399;28;20212;-30
2023/07/20 08:51:06;;;;;;;4.40;3.25;;;22.40;99.90;;;;;;5024288;28;20209;-26
2023/07/20 08:53:36;;;;;;;3.42;3.13;;;22.40;99.90;;;;;;5026897;28;20235;-26
2023/07/20 08:56:04;;;;;;;4.50;3.20;;;22.40;99.90;;;;;;5041876;28;20204;-26
2023/07/20 08:58:35;;;;;;;3.38;3.03;;;22.50;99.90;;;;;;5031959;28;20221;-26
2023/07/20 09:01:04;;;;;;;3.30;3.00;;;22.50;99.90;;;;;;5028555;28;20678;-26
2023/07/20 09:03:33;;;;;;;3.53;3.13;;;22.50;99.90;;;;;;5046344;28;20240;-26
2023/07/20 09:06:08;;;;;;;3.30;2.92;;;22.60;99.90;;;;;;5041903;28;20225;-26
2023/07/20 09:08:38;;;;;;;3.67;2.95;;;22.60;99.90;;;;;;5045745;28;20209;-26
2023/07/20 09:11:12;;;;;;;4.63;2.80;;;22.60;99.90;;;;;;5031794;28;20698;-26
2023/07/20 09:13:42;;;;;;;3.72;2.80;;;22.70;99.90;;;;;;5027281;28;20548;-26
2023/07/20 09:16:14;;;;;;;4.43;2.67;;;22.70;99.90;;;;;;5028811;28;20220;-26
2023/07/20 09:18:41;;;;;;;2.63;2.28;;;22.70;99.90;;;;;;5031938;28;20227;-26
2023/07/20 09:21:09;;;;;;;2.95;2.63;;;22.80;99.90;;;;;;5031474;28;20216;-26
2023/07/20 09:23:41;;;;;;;3.13;2.70;;;22.80;99.90;;;;;;5029783;28;20208;-26
2023/07/20 09:26:13;;;;;;;5.78;2.78;;;22.80;99.90;;;;;;5033384;28;20223;-26
2023/07/20 09:28:55;;;;;;;2.33;1.88;;;22.90;99.90;;;;;;5034062;28;20252;-26
2023/07/20 09:31:25;;;;;;;2.65;2.08;;;22.90;99.90;;;;;;5028625;28;20289;-26
2023/07/20 09:33:53;;;;;;;2.15;1.95;;;22.90;99.90;;;;;;5039353;28;20211;-28
2023/07/20 09:36:28;;;;;;;1.80;1.70;;;23.00;99.90;;;;;;5035374;28;20200;-25
2023/07/20 09:38:59;;;;;;;3.00;1.58;;;23.00;99.90;;;;;;5026620;28;20254;-25
2023/07/20 09:41:32;;;;;;;1.73;1.45;;;23.00;99.90;;;;;;5039309;28;20265;-25
2023/07/20 09:44:02;;;;;;;2.35;1.90;;;23.00;99.90;;;;;;5045606;28;20317;-26
2023/07/20 09:46:53;;;;;;;1.90;1.80;;;23.10;99.90;;;;;;5039956;28;20597;-26
2023/07/20 09:49:25;;;;;;;2.53;1.60;;;23.10;99.90;;;;;;5046424;28;20309;-25
2023/07/20 09:52:00;;;;;;;1.77;1.60;;;23.10;99.90;;;;;;5038413;28;20208;-26
2023/07/20 09:54:29;;;;;;;1.75;1.55;;;23.10;99.90;;;;;;5037131;28;20207;-26
2023/07/20 09:56:59;;;;;;;2.00;1.70;;;23.10;99.90;;;;;;5033415;28;20293;-25
2023/07/20 09:59:29;;;;;;;2.38;1.60;;;23.20;99.90;;;;;;5040633;28;20257;-25
2023/07/20 10:01:59;;;;;;;1.77;1.50;;;23.20;99.90;;;;;;5025238;28;20239;-26
2023/07/20 10:04:28;;;;;;;2.65;1.60;;;23.30;99.90;;;;;;5039896;28;20600;-25
2023/07/20 10:06:59;;;;;;;2.63;1.60;;;23.30;99.90;;;;;;5032323;28;20590;-25
2023/07/20 10:09:30;;;;;;;2.72;1.55;;;23.30;99.90;;;;;;5030796;28;20197;-26
2023/07/20 10:11:59;;;;;;;1.40;1.30;;;23.30;99.90;;;;;;5037036;28;20700;-26
2023/07/20 10:15:10;;;;;;;2.15;1.40;;;23.40;99.90;;;;;;5032085;28;21679;-26
2023/07/20 10:17:49;;;;;;;1.40;1.25;;;23.50;99.90;;;;;;5037077;28;20212;-26
2023/07/20 10:20:21;;;;;;;1.58;1.20;;;23.50;99.90;;;;;;5033252;28;20208;-26
2023/07/20 10:22:56;;;;;;;4.03;1.20;;;23.60;99.90;;;;;;5031396;28;20224;-26
2023/07/20 10:25:24;;;;;;;1.27;1.17;;;23.60;99.90;;;;;;5037841;28;20232;-26
2023/07/20 10:27:57;;;;;;;1.60;1.30;;;23.70;99.90;;;;;;5037984;28;20348;-26
2023/07/20 10:30:32;;;;;;;2.17;1.38;;;23.80;99.90;;;;;;5041040;28;20212;-26
2023/07/20 10:33:02;;;;;;;1.92;1.38;;;23.80;99.90;;;;;;5025044;28;20278;-25
2023/07/20 10:35:31;;;;;;;1.80;1.17;;;23.80;99.90;;;;;;5024376;28;20212;-26
2023/07/20 10:38:02;;;;;;;1.52;1.20;;;23.90;99.90;;;;;;5040887;28;20762;-26
2023/07/20 10:40:34;;;;;;;1.25;1.10;;;24.00;99.90;;;;;;5034172;28;20551;-26
2023/07/20 10:43:04;;;;;;;1.15;0.98;;;24.00;99.90;;;;;;5036837;28;20215;-25
2023/07/20 10:45:53;;;;;;;1.25;1.15;;;24.00;99.90;;;;;;5039562;28;20201;-25
2023/07/20 10:48:24;;;;;;;1.02;0.75;;;24.10;99.90;;;;;;5028168;28;20204;-26
2023/07/20 10:51:14;;;;;;;1.58;1.05;;;24.20;99.90;;;;;;5035827;28;20242;-31
2023/07/20 10:53:44;;;;;;;1.15;1.00;;;24.20;99.90;;;;;;5024115;28;20201;-31
2023/07/20 10:56:19;;;;;;;1.13;1.02;;;24.30;99.90;;;;;;5033010;28;20708;-31
2023/07/20 10:58:49;;;;;;;1.70;1.00;;;24.40;99.90;;;;;;5032786;28;20201;-31
2023/07/20 11:01:19;;;;;;;1.55;1.20;;;24.40;99.90;;;;;;5028388;28;20221;-31
2023/07/20 11:03:54;;;;;;;1.08;0.88;;;24.50;99.90;;;;;;5035354;28;20737;-31
2023/07/20 11:06:26;;;;;;;2.10;0.77;;;24.50;99.90;;;;;;5036687;28;20702;-31
2023/07/20 11:09:02;;;;;;;1.23;0.80;;;24.60;99.90;;;;;;5025112;28;20203;-31
2023/07/20 11:11:35;;;;;;;1.20;0.90;;;24.70;99.90;;;;;;5028717;28;20204;-31
2023/07/20 11:14:21;;;;;;;1.20;1.00;;;24.70;99.90;;;;;;5034318;28;20207;-31
2023/07/20 11:16:51;;;;;;;1.95;0.98;;;24.70;99.90;;;;;;5040955;28;20212;-31
2023/07/20 11:19:28;;;;;;;1.98;1.08;;;24.70;99.90;;;;;;5038927;28;20293;-31
2023/07/20 11:22:07;;;;;;;1.92;0.70;;;24.70;99.90;;;;;;5030531;28;20217;-31
2023/07/20 11:24:42;;;;;;;1.35;0.82;;;24.70;99.90;;;;;;5031369;28;20250;-31
2023/07/20 11:27:11;;;;;;;1.65;1.13;;;24.70;99.90;;;;;;5041378;28;20725;-30
2023/07/20 11:29:41;;;;;;;0.90;0.80;;;24.80;99.90;;;;;;5044387;28;20534;-31
2023/07/20 11:32:13;;;;;;;1.20;1.10;;;24.80;99.90;;;;;;5035987;28;20208;-31
2023/07/20 11:34:46;;;;;;;0.82;0.82;;;24.80;99.90;;;;;;5041115;28;20242;-31
2023/07/20 11:37:15;;;;;;;0.98;0.98;;;24.90;99.90;;;;;;5038246;28;20216;-31
2023/07/20 11:39:43;;;;;;;1.45;0.90;;;24.90;99.90;;;;;;5033924;28;20327;-31
2023/07/20 11:42:14;;;;;;;1.17;0.75;;;24.90;99.90;;;;;;5057222;28;20209;-31
2023/07/20 11:45:04;;;;;;;1.90;1.00;;;24.90;99.90;;;;;;5032849;28;20215;-31
2023/07/20 11:47:33;;;;;;;1.85;0.80;;;24.90;99.90;;;;;;5028821;28;20851;-31
2023/07/20 11:50:05;;;;;;;1.35;0.90;;;24.90;99.90;;;;;;5029653;28;20205;-31
2023/07/20 11:52:33;;;;;;;1.98;0.88;;;24.90;99.90;;;;;;5033788;28;20959;-31
2023/07/20 11:55:04;;;;;;;1.27;1.02;;;24.90;99.90;;;;;;5027246;28;20312;-31
2023/07/20 11:57:34;;;;;;;2.45;1.00;;;24.80;99.90;;;;;;5028684;28;20217;-31
2023/07/20 12:00:09;;;;;;;1.52;0.80;;;24.80;99.90;;;;;;5038565;28;20212;-31
2023/07/20 12:02:40;;;;;;;1.30;0.80;;;24.80;99.90;;;;;;5035599;28;20282;-31
2023/07/20 12:05:13;;;;;;;3.25;0.90;;;24.90;99.90;;;;;;5035652;28;20295;-31
2023/07/20 12:07:41;;;;;;;1.30;1.02;;;24.90;99.90;;;;;;5028547;28;20332;-31
2023/07/20 12:10:12;;;;;;;1.52;1.00;;;25.00;99.90;;;;;;5033711;28;20219;-31
2023/07/20 12:12:41;;;;;;;1.25;1.00;;;25.00;99.90;;;;;;5033939;28;20196;-30
2023/07/20 12:15:29;;;;;;;1.35;0.85;;;25.10;99.90;;;;;;5037562;28;20744;-30
2023/07/20 12:18:01;;;;;;;2.42;0.93;;;25.20;99.90;;;;;;5034520;28;20491;-31
2023/07/20 12:20:31;;;;;;;1.23;0.88;;;25.20;99.90;;;;;;5037373;28;20686;-30
2023/07/20 12:23:05;;;;;;;3.17;0.90;;;25.30;99.90;;;;;;5024550;28;20224;-31
2023/07/20 12:25:39;;;;;;;1.85;0.95;;;25.30;99.90;;;;;;5038901;28;20206;-31
2023/07/20 12:28:12;;;;;;;1.30;0.90;;;25.30;99.90;;;;;;5040264;28;20756;-31
2023/07/20 12:30:51;;;;;;;1.15;0.90;;;25.40;99.90;;;;;;5035462;28;20208;-31
2023/07/20 12:33:20;;;;;;;0.82;0.80;;;25.40;99.80;;;;;;5044740;28;20200;-31
2023/07/20 12:35:51;;;;;;;0.85;0.80;;;25.40;99.80;;;;;;5038861;28;20729;-31
2023/07/20 12:38:20;;;;;;;0.90;0.90;;;25.40;99.80;;;;;;5025572;28;20244;-31
2023/07/20 12:40:50;;;;;;;3.03;1.00;;;25.50;99.80;;;;;;5037030;28;20303;-31
2023/07/20 12:43:20;;;;;;;1.15;0.90;;;25.50;99.80;;;;;;5035738;28;20219;-31
2023/07/20 12:45:50;;;;;;;0.88;0.75;;;25.60;99.60;;;;;;5038265;28;20673;-31
2023/07/20 12:48:22;;;;;;;1.15;0.95;;;25.60;99.40;;;;;;5035247;28;20252;-31
2023/07/20 12:50:52;;;;;;;2.80;1.00;;;25.60;99.40;;;;;;5025609;28;20797;-31
2023/07/20 12:53:22;;;;;;;1.63;0.88;;;25.60;99.40;;;;;;5029275;28;20204;-31
2023/07/20 12:55:54;;;;;;;2.55;1.00;;;25.60;99.50;;;;;;5029854;28;20212;-31
2023/07/20 12:58:24;;;;;;;1.52;0.98;;;25.60;99.50;;;;;;5032000;28;20722;-31
2023/07/20 13:00:52;;;;;;;0.98;0.80;;;25.70;99.40;;;;;;5031942;28;20583;-31
2023/07/20 13:03:19;;;;;;;1.83;0.90;;;25.70;99.50;;;;;;5030818;28;20241;-31
2023/07/20 13:05:52;;;;;;;0.88;0.82;;;25.70;99.40;;;;;;5030745;28;20212;-31